Time;durP1;ratioP1;P1;durP2;ratioP2;P2;SDS_P1;SDS_P2;PMS_P1;PMS_P2;Temp;Humidity;BMP_temperature;BMP_pressure;BME280_temperature;BME280_humidity;BME280_pressure;Samples;Min_cycle;Max_cycle;Signal;HPM_P1;HPM_P2
2023/05/16 00:02:08;;;;;;;23.42;5.80;;;7.50;99.90;;;;;;4978181;28;20042;-77
2023/05/16 00:04:35;;;;;;;25.45;6.25;;;7.50;99.90;;;;;;4969452;28;20072;-77
2023/05/16 00:07:01;;;;;;;23.95;5.85;;;7.50;99.90;;;;;;4985613;28;20042;-77
2023/05/16 00:09:26;;;;;;;18.98;4.90;;;7.50;99.90;;;;;;4976858;28;20041;-77
2023/05/16 00:11:52;;;;;;;20.35;5.35;;;7.40;99.90;;;;;;4961431;28;20590;-77
2023/05/16 00:14:18;;;;;;;18.40;5.93;;;7.50;99.90;;;;;;4963951;28;20034;-77
2023/05/16 00:16:49;;;;;;;21.85;5.80;;;7.40;99.90;;;;;;4994077;28;20046;-77
2023/05/16 00:19:15;;;;;;;22.40;5.55;;;7.40;99.90;;;;;;4977409;28;20042;-77
2023/05/16 00:21:40;;;;;;;23.20;5.50;;;7.30;99.90;;;;;;4962971;28;20420;-77
2023/05/16 00:24:06;;;;;;;24.40;6.40;;;7.30;99.90;;;;;;4970056;28;20049;-77
2023/05/16 00:26:32;;;;;;;25.88;5.95;;;7.30;99.90;;;;;;4978587;28;20049;-77
2023/05/16 00:28:58;;;;;;;21.27;5.97;;;7.20;99.90;;;;;;4969042;28;20121;-77
2023/05/16 00:31:27;;;;;;;22.58;5.82;;;7.20;99.90;;;;;;4977988;28;20115;-77
2023/05/16 00:33:53;;;;;;;21.48;5.82;;;7.20;99.90;;;;;;4976541;28;20068;-77
2023/05/16 00:36:20;;;;;;;22.33;5.10;;;7.10;99.90;;;;;;4986981;28;20042;-77
2023/05/16 00:38:49;;;;;;;17.02;5.45;;;7.00;99.90;;;;;;4969441;28;20054;-77
2023/05/16 00:41:16;;;;;;;22.13;5.20;;;7.00;99.90;;;;;;4986433;28;20049;-77
2023/05/16 00:43:41;;;;;;;22.30;6.35;;;6.90;99.90;;;;;;4977239;28;20104;-77
2023/05/16 00:46:07;;;;;;;18.17;5.50;;;6.80;99.90;;;;;;4966517;28;20497;-77
2023/05/16 00:48:33;;;;;;;19.65;5.25;;;6.80;99.90;;;;;;4967427;28;20038;-77
2023/05/16 00:51:00;;;;;;;20.38;5.00;;;6.70;99.90;;;;;;4968378;28;20393;-77
2023/05/16 00:53:26;;;;;;;15.20;5.07;;;6.70;99.90;;;;;;4979057;28;20565;-77
2023/05/16 00:55:52;;;;;;;21.50;5.03;;;6.60;99.90;;;;;;4985504;28;20045;-77
2023/05/16 00:58:19;;;;;;;20.92;5.18;;;6.60;99.90;;;;;;4988291;28;20400;-77
2023/05/16 01:00:46;;;;;;;21.63;5.60;;;6.50;99.90;;;;;;4970269;28;20034;-77
2023/05/16 01:03:12;;;;;;;19.90;5.40;;;6.50;99.90;;;;;;4976583;28;20046;-77
2023/05/16 01:05:38;;;;;;;18.60;5.35;;;6.50;99.90;;;;;;4985057;28;20480;-77
2023/05/16 01:08:04;;;;;;;19.92;5.43;;;6.50;99.90;;;;;;4968403;28;20045;-77
2023/05/16 01:10:55;;;;;;;20.95;5.72;;;6.40;99.90;;;;;;4971587;28;20460;-77
2023/05/16 01:13:38;;;;;;;22.67;5.28;;;6.40;99.90;;;;;;4977237;28;20042;-77
2023/05/16 01:16:14;;;;;;;17.35;5.28;;;6.30;99.90;;;;;;4969247;28;20088;-77
2023/05/16 01:19:05;;;;;;;19.70;4.53;;;6.30;99.90;;;;;;4969881;28;20062;-77
2023/05/16 01:21:44;;;;;;;19.88;5.70;;;6.20;99.90;;;;;;4985184;28;20092;-77
2023/05/16 01:24:29;;;;;;;18.35;4.47;;;6.20;99.90;;;;;;4980910;28;20034;-77
2023/05/16 01:26:56;;;;;;;18.90;5.47;;;6.30;99.90;;;;;;4980907;28;20042;-77
2023/05/16 01:29:22;;;;;;;18.83;4.70;;;6.10;99.90;;;;;;4974771;28;20041;-77
2023/05/16 01:31:48;;;;;;;17.50;4.53;;;6.10;99.90;;;;;;4972221;28;20046;-77
2023/05/16 01:34:13;;;;;;;19.15;4.38;;;6.00;99.90;;;;;;4977659;28;20408;-77
2023/05/16 01:36:53;;;;;;;20.70;5.05;;;6.00;99.90;;;;;;4979102;28;20037;-77
2023/05/16 01:39:39;;;;;;;20.10;4.63;;;6.00;99.90;;;;;;4975701;28;20038;-77
2023/05/16 01:42:13;;;;;;;15.70;4.70;;;5.90;99.90;;;;;;4976602;28;20112;-77
2023/05/16 01:45:11;;;;;;;15.15;4.63;;;5.90;99.90;;;;;;4996816;28;20127;-77
2023/05/16 01:47:43;;;;;;;14.75;4.85;;;5.90;99.90;;;;;;4995677;28;20404;-78
2023/05/16 01:50:19;;;;;;;20.30;5.57;;;5.80;99.90;;;;;;4989904;28;20050;-77
2023/05/16 01:52:55;;;;;;;18.27;4.82;;;5.80;99.90;;;;;;4976040;28;20042;-77
2023/05/16 01:55:31;;;;;;;20.45;5.32;;;5.70;99.90;;;;;;4989970;28;20145;-77
2023/05/16 01:57:58;;;;;;;16.83;4.68;;;5.60;99.90;;;;;;4978935;28;20081;-77
2023/05/16 02:00:24;;;;;;;15.73;4.85;;;5.60;99.90;;;;;;4982632;28;20107;-77
2023/05/16 02:02:52;;;;;;;16.15;5.03;;;5.50;99.90;;;;;;4996181;28;20038;-77
2023/05/16 02:05:18;;;;;;;15.07;4.35;;;5.50;99.90;;;;;;4980398;28;20492;-77
2023/05/16 02:07:44;;;;;;;19.65;4.88;;;5.50;99.90;;;;;;4995697;28;20044;-77
2023/05/16 02:10:10;;;;;;;20.42;5.20;;;5.50;99.90;;;;;;5007112;28;20499;-77
2023/05/16 02:12:36;;;;;;;19.40;4.90;;;5.40;99.90;;;;;;4971686;28;20034;-77
2023/05/16 02:15:02;;;;;;;18.80;5.15;;;5.40;99.90;;;;;;4980149;28;20077;-77
2023/05/16 02:17:28;;;;;;;13.35;5.13;;;5.30;99.90;;;;;;4979084;28;20073;-77
2023/05/16 02:19:54;;;;;;;20.05;5.82;;;5.30;99.90;;;;;;4992254;28;20046;-77
2023/05/16 02:22:19;;;;;;;19.95;5.03;;;5.30;99.90;;;;;;4972663;28;20037;-77
2023/05/16 02:24:45;;;;;;;16.27;5.00;;;5.20;99.90;;;;;;4980232;28;20095;-78
2023/05/16 02:27:11;;;;;;;20.27;5.28;;;5.20;99.90;;;;;;4984804;28;20118;-77
2023/05/16 02:29:36;;;;;;;21.40;5.75;;;5.20;99.90;;;;;;4979808;28;20041;-77
2023/05/16 02:32:03;;;;;;;18.95;5.60;;;5.30;99.90;;;;;;4979313;28;20128;-77
2023/05/16 02:34:31;;;;;;;18.35;6.20;;;5.20;99.90;;;;;;4975682;28;20505;-77
2023/05/16 02:36:57;;;;;;;17.13;5.93;;;5.30;99.90;;;;;;4975650;28;20045;-77
2023/05/16 02:39:22;;;;;;;29.25;8.05;;;5.20;99.90;;;;;;4983221;28;20133;-77
2023/05/16 02:41:48;;;;;;;18.35;6.65;;;5.10;99.90;;;;;;4979731;28;20407;-77
2023/05/16 02:44:14;;;;;;;22.83;8.15;;;5.20;99.90;;;;;;4975958;28;20493;-77
2023/05/16 02:46:39;;;;;;;21.83;7.47;;;5.20;99.90;;;;;;4983700;28;20500;-77
2023/05/16 02:49:05;;;;;;;22.55;7.10;;;5.10;99.90;;;;;;4991900;28;20072;-77
2023/05/16 02:51:31;;;;;;;21.85;8.10;;;5.20;99.90;;;;;;4965902;28;20046;-77
2023/05/16 02:53:58;;;;;;;24.02;7.93;;;5.10;99.90;;;;;;4960716;28;20038;-77
2023/05/16 02:56:25;;;;;;;20.45;7.55;;;5.10;99.90;;;;;;4977930;28;20037;-77
2023/05/16 02:58:53;;;;;;;25.50;10.18;;;5.10;99.90;;;;;;4994653;28;20045;-77
2023/05/16 03:01:19;;;;;;;18.58;8.68;;;5.10;99.90;;;;;;5013315;28;20491;-77
2023/05/16 03:03:45;;;;;;;20.40;9.65;;;5.10;99.90;;;;;;4997901;28;20037;-77
2023/05/16 03:06:11;;;;;;;27.00;8.68;;;5.00;99.90;;;;;;4970615;28;20033;-77
2023/05/16 03:08:37;;;;;;;21.38;8.30;;;5.10;99.90;;;;;;4971850;28;20121;-77
2023/05/16 03:11:02;;;;;;;22.10;8.18;;;5.00;99.90;;;;;;4993676;28;20608;-77
2023/05/16 03:13:29;;;;;;;23.85;7.97;;;5.00;99.90;;;;;;4979401;28;20041;-77
2023/05/16 03:15:55;;;;;;;22.05;8.35;;;5.00;99.90;;;;;;4977306;28;20042;-77
2023/05/16 03:18:23;;;;;;;21.33;7.82;;;5.00;99.90;;;;;;5011200;28;20069;-78
2023/05/16 03:20:51;;;;;;;22.33;8.85;;;5.00;99.90;;;;;;4971621;28;20043;-78
2023/05/16 03:23:20;;;;;;;17.38;7.82;;;5.00;99.90;;;;;;4960409;28;20045;-78
2023/05/16 03:25:47;;;;;;;22.80;8.98;;;4.90;99.90;;;;;;4966016;28;20126;-78
2023/05/16 03:28:12;;;;;;;16.77;7.75;;;5.00;99.90;;;;;;4987168;28;20042;-78
2023/05/16 03:30:38;;;;;;;24.80;9.07;;;4.90;99.90;;;;;;4988854;28;20470;-78
2023/05/16 03:33:04;;;;;;;19.52;8.38;;;4.90;99.90;;;;;;4976306;28;20050;-78
2023/05/16 03:35:35;;;;;;;23.73;8.85;;;4.90;99.90;;;;;;4971161;28;20103;-78
2023/05/16 03:38:01;;;;;;;21.48;8.45;;;4.90;99.90;;;;;;4969072;28;20048;-78
2023/05/16 03:40:27;;;;;;;21.77;8.07;;;4.90;99.90;;;;;;4989036;28;20088;-77
2023/05/16 03:42:56;;;;;;;20.67;8.90;;;4.90;99.90;;;;;;4978515;28;20077;-78
2023/05/16 03:45:22;;;;;;;16.58;7.93;;;4.90;99.90;;;;;;4974350;28;20062;-78
2023/05/16 03:47:50;;;;;;;21.98;8.60;;;4.90;99.90;;;;;;4987794;28;20532;-78
2023/05/16 03:50:16;;;;;;;22.40;8.48;;;4.80;99.90;;;;;;4987342;28;20040;-78
2023/05/16 03:52:42;;;;;;;18.95;8.43;;;4.90;99.90;;;;;;4978996;28;20057;-78
2023/05/16 03:55:08;;;;;;;20.23;8.57;;;4.80;99.90;;;;;;4975304;28;20112;-78
2023/05/16 03:57:41;;;;;;;22.77;9.43;;;4.90;99.90;;;;;;4988991;28;20077;-78
2023/05/16 04:00:07;;;;;;;22.23;8.48;;;4.90;99.90;;;;;;4986410;28;20566;-78
2023/05/16 04:02:33;;;;;;;20.08;8.38;;;4.80;99.90;;;;;;5012939;28;20037;-78
2023/05/16 04:04:59;;;;;;;19.30;8.65;;;4.90;99.90;;;;;;4976667;28;20041;-78
2023/05/16 04:07:24;;;;;;;21.50;9.35;;;4.90;99.90;;;;;;4970575;28;20081;-77
2023/05/16 04:09:51;;;;;;;18.98;9.20;;;4.90;99.90;;;;;;5003588;28;20487;-78
2023/05/16 04:12:17;;;;;;;23.98;9.52;;;5.00;99.90;;;;;;4979147;28;20064;-78
2023/05/16 04:14:43;;;;;;;23.42;9.38;;;5.10;99.90;;;;;;4978281;28;20492;-77
2023/05/16 04:17:09;;;;;;;21.35;8.38;;;5.10;99.90;;;;;;4969115;28;20370;-78
2023/05/16 04:19:35;;;;;;;20.15;8.82;;;5.10;99.90;;;;;;4970821;28;20046;-78
2023/05/16 04:22:01;;;;;;;18.67;8.07;;;5.10;99.90;;;;;;4994941;28;20064;-77
2023/05/16 04:24:27;;;;;;;17.98;9.18;;;5.20;99.90;;;;;;4994381;28;20042;-78
2023/05/16 04:26:54;;;;;;;19.85;8.50;;;5.20;99.90;;;;;;4986346;28;20030;-78
2023/05/16 04:29:20;;;;;;;17.23;7.68;;;5.30;99.90;;;;;;4970987;28;20088;-78
2023/05/16 04:31:47;;;;;;;21.33;8.90;;;5.30;99.90;;;;;;4978911;28;20123;-78
2023/05/16 04:34:14;;;;;;;19.25;7.15;;;5.40;99.90;;;;;;5012548;28;20558;-78
2023/05/16 04:36:40;;;;;;;23.15;8.80;;;5.40;99.90;;;;;;4993542;28;20575;-78
2023/05/16 04:39:06;;;;;;;19.35;7.90;;;5.50;99.90;;;;;;4992312;28;20042;-78
2023/05/16 04:41:32;;;;;;;17.02;7.05;;;5.80;99.90;;;;;;4959006;28;20038;-78
2023/05/16 04:44:02;;;;;;;18.40;5.95;;;6.30;99.90;;;;;;4959156;28;20046;-78
2023/05/16 04:46:28;;;;;;;14.25;4.90;;;7.00;99.90;;;;;;4963747;28;20092;-78
2023/05/16 04:48:54;;;;;;;16.00;5.20;;;7.60;99.90;;;;;;4993713;28;20049;-78
2023/05/16 04:51:20;;;;;;;10.68;3.42;;;8.10;99.90;;;;;;4994780;28;20050;-78
2023/05/16 04:53:46;;;;;;;13.45;4.18;;;8.40;99.90;;;;;;4978954;28;20041;-78
2023/05/16 04:56:12;;;;;;;14.13;3.78;;;8.40;99.90;;;;;;4997886;28;20550;-78
2023/05/16 04:58:38;;;;;;;14.20;4.60;;;8.20;99.90;;;;;;4989830;28;20046;-78
2023/05/16 05:01:06;;;;;;;13.60;3.85;;;8.20;99.90;;;;;;4979020;28;20034;-78
2023/05/16 05:03:33;;;;;;;10.70;3.83;;;8.50;99.90;;;;;;4991589;28;20167;-78
2023/05/16 05:05:59;;;;;;;13.85;3.83;;;9.10;99.90;;;;;;4972458;28;20460;-79
2023/05/16 05:08:25;;;;;;;12.63;4.35;;;9.30;99.90;;;;;;4989947;28;20057;-78
2023/05/16 05:10:50;;;;;;;11.80;3.92;;;9.40;99.90;;;;;;4994064;28;20503;-78
2023/05/16 05:13:16;;;;;;;13.10;3.53;;;9.90;99.90;;;;;;4990664;28;20107;-78
2023/05/16 05:15:42;;;;;;;11.95;3.05;;;10.10;99.90;;;;;;4981309;28;20073;-78
2023/05/16 05:18:08;;;;;;;10.90;3.33;;;10.00;99.90;;;;;;4988918;28;20042;-78
2023/05/16 05:20:36;;;;;;;10.93;3.40;;;9.80;99.90;;;;;;4981511;28;20050;-78
2023/05/16 05:23:02;;;;;;;12.65;3.47;;;10.00;99.90;;;;;;4991100;28;20135;-78
2023/05/16 05:25:28;;;;;;;12.70;3.22;;;10.60;99.90;;;;;;5029287;28;20065;-78
2023/05/16 05:27:53;;;;;;;11.48;2.90;;;11.30;99.90;;;;;;4996187;28;20116;-79
2023/05/16 05:30:19;;;;;;;9.63;2.80;;;11.90;99.90;;;;;;4977599;28;20034;-78
2023/05/16 05:32:45;;;;;;;8.85;2.50;;;12.50;99.90;;;;;;4979344;28;20038;-78
2023/05/16 05:35:11;;;;;;;10.32;2.78;;;12.90;99.90;;;;;;4978147;28;20515;-78
2023/05/16 05:37:37;;;;;;;8.73;2.55;;;13.30;99.90;;;;;;4976138;28;20123;-78
2023/05/16 05:40:03;;;;;;;10.73;2.70;;;13.60;99.90;;;;;;4979837;28;20672;-78
2023/05/16 05:42:28;;;;;;;10.25;2.55;;;13.80;99.90;;;;;;4997978;28;20374;-78
2023/05/16 05:44:54;;;;;;;12.65;2.75;;;13.60;99.90;;;;;;4980709;28;20048;-78
2023/05/16 05:47:20;;;;;;;10.90;2.85;;;13.10;99.90;;;;;;4980367;28;20034;-78
2023/05/16 05:49:46;;;;;;;11.40;2.85;;;12.50;99.90;;;;;;4995709;28;20096;-78
2023/05/16 05:52:12;;;;;;;13.25;3.00;;;12.00;99.90;;;;;;4967511;28;20100;-78
2023/05/16 05:54:38;;;;;;;9.45;2.67;;;11.50;99.90;;;;;;4974966;28;20055;-78
2023/05/16 05:57:04;;;;;;;9.88;3.17;;;11.20;99.90;;;;;;4979327;28;20048;-78
2023/05/16 05:59:30;;;;;;;11.05;3.20;;;10.90;99.90;;;;;;4992564;28;20034;-78
2023/05/16 06:01:55;;;;;;;10.93;2.95;;;10.80;99.90;;;;;;4980013;28;20042;-78
2023/05/16 06:04:21;;;;;;;15.25;2.80;;;10.80;99.90;;;;;;4993431;28;20103;-78
2023/05/16 06:06:47;;;;;;;11.20;3.35;;;10.80;99.90;;;;;;4964194;28;20030;-78
2023/05/16 06:09:13;;;;;;;11.07;3.03;;;10.70;99.90;;;;;;4978423;28;20053;-78
2023/05/16 06:11:40;;;;;;;10.45;2.50;;;10.50;99.90;;;;;;4972170;28;20049;-77
2023/05/16 06:14:06;;;;;;;10.68;2.15;;;10.60;99.90;;;;;;4975818;28;20039;-77
2023/05/16 06:16:35;;;;;;;10.50;2.50;;;10.50;99.90;;;;;;4963661;28;21470;-77
2023/05/16 06:19:00;;;;;;;12.52;2.95;;;10.40;99.90;;;;;;4988110;28;20042;-77
2023/05/16 06:21:26;;;;;;;9.80;2.35;;;10.40;99.90;;;;;;4990379;28;20034;-77
2023/05/16 06:23:51;;;;;;;10.93;2.63;;;10.40;99.90;;;;;;4977253;28;20040;-77
2023/05/16 06:26:17;;;;;;;9.63;2.58;;;10.50;99.90;;;;;;4961156;28;20041;-78
2023/05/16 06:28:43;;;;;;;12.95;2.90;;;10.60;99.90;;;;;;4960589;28;20034;-78
2023/05/16 06:31:09;;;;;;;12.82;2.90;;;10.60;99.90;;;;;;4984864;28;20049;-79
2023/05/16 06:33:37;;;;;;;10.45;2.70;;;10.50;99.90;;;;;;4982762;28;20129;-79
2023/05/16 06:36:03;;;;;;;9.43;2.50;;;10.50;99.90;;;;;;5012787;28;20057;-80
2023/05/16 06:38:29;;;;;;;13.57;3.30;;;10.50;99.90;;;;;;5009379;28;20037;-78
2023/05/16 06:40:55;;;;;;;9.48;2.58;;;10.40;99.90;;;;;;5002242;28;20407;-78
2023/05/16 06:43:20;;;;;;;10.48;2.50;;;10.40;99.90;;;;;;4988089;28;20088;-78
2023/05/16 06:45:46;;;;;;;10.68;2.80;;;10.50;99.90;;;;;;4987668;28;20034;-78
2023/05/16 06:48:16;;;;;;;9.55;2.58;;;10.50;99.90;;;;;;4975665;28;20092;-78
2023/05/16 06:50:45;;;;;;;10.82;2.92;;;10.70;99.90;;;;;;4987030;28;20044;-78
2023/05/16 06:53:14;;;;;;;8.52;2.47;;;10.80;99.90;;;;;;4992006;28;20042;-78
2023/05/16 06:55:40;;;;;;;9.45;2.17;;;11.00;99.90;;;;;;5003702;28;20092;-78
2023/05/16 06:58:05;;;;;;;9.93;1.90;;;11.20;99.90;;;;;;4977849;28;20037;-78
2023/05/16 07:00:31;;;;;;;10.55;2.10;;;11.50;99.90;;;;;;4976154;28;20129;-78
2023/05/16 07:02:57;;;;;;;7.20;2.03;;;11.60;99.90;;;;;;5006530;28;20473;-79
2023/05/16 07:05:22;;;;;;;7.60;2.00;;;11.60;99.90;;;;;;4978556;28;20033;-79
2023/05/16 07:07:48;;;;;;;8.05;1.80;;;11.70;99.90;;;;;;4985828;28;20054;-79
2023/05/16 07:10:14;;;;;;;10.48;2.33;;;11.80;99.90;;;;;;5012690;28;20050;-79
2023/05/16 07:12:43;;;;;;;5.15;1.67;;;11.80;99.90;;;;;;4990333;28;20034;-79
2023/05/16 07:15:09;;;;;;;6.15;2.00;;;11.80;99.90;;;;;;4986605;28;20057;-78
2023/05/16 07:17:35;;;;;;;6.80;1.90;;;11.90;99.90;;;;;;4976338;28;20048;-78
2023/05/16 07:20:01;;;;;;;6.80;1.90;;;11.80;99.90;;;;;;4968823;28;20430;-78
2023/05/16 07:22:27;;;;;;;8.50;2.08;;;11.80;99.90;;;;;;4979078;28;20038;-78
2023/05/16 07:24:55;;;;;;;7.68;1.83;;;11.70;99.90;;;;;;4994072;28;20034;-78
2023/05/16 07:27:22;;;;;;;7.43;2.22;;;11.60;99.90;;;;;;4977815;28;20480;-78
2023/05/16 07:29:47;;;;;;;7.53;1.80;;;11.40;99.90;;;;;;4977848;28;20042;-78
2023/05/16 07:32:13;;;;;;;7.25;1.80;;;11.20;99.90;;;;;;4992521;28;20217;-78
2023/05/16 07:34:39;;;;;;;7.75;2.08;;;11.10;99.90;;;;;;4975027;28;20511;-78
2023/05/16 07:37:11;;;;;;;7.22;1.85;;;11.10;99.90;;;;;;4959517;28;20054;-78
2023/05/16 07:39:38;;;;;;;7.68;1.80;;;11.10;99.90;;;;;;4974352;28;20042;-78
2023/05/16 07:42:03;;;;;;;10.38;2.38;;;11.30;99.90;;;;;;4978448;28;20042;-78
2023/05/16 07:44:30;;;;;;;6.50;1.60;;;11.60;99.90;;;;;;4970326;28;20038;-78
2023/05/16 07:46:55;;;;;;;7.75;1.83;;;12.10;99.90;;;;;;4986079;28;20050;-78
2023/05/16 07:49:21;;;;;;;5.53;1.80;;;12.30;99.90;;;;;;4991362;28;20575;-82
2023/05/16 07:51:49;;;;;;;6.95;1.52;;;12.70;99.90;;;;;;4978157;28;20104;-79
2023/05/16 07:54:15;;;;;;;8.40;1.83;;;13.10;99.90;;;;;;4978661;28;20042;-80
2023/05/16 07:56:41;;;;;;;5.78;1.75;;;13.50;99.90;;;;;;4977156;28;20052;-79
2023/05/16 07:59:07;;;;;;;9.65;2.08;;;13.80;99.90;;;;;;4978280;28;20042;-79
2023/05/16 08:01:33;;;;;;;9.98;2.50;;;14.00;99.90;;;;;;4976750;28;20076;-78
2023/05/16 08:03:58;;;;;;;10.60;2.00;;;13.90;99.90;;;;;;4972545;28;20050;-78
2023/05/16 08:06:24;;;;;;;7.88;1.52;;;13.50;99.90;;;;;;4975586;28;20452;-78
2023/05/16 08:08:50;;;;;;;11.48;2.38;;;13.10;99.90;;;;;;4994601;28;20402;-78
2023/05/16 08:11:16;;;;;;;7.95;1.67;;;12.80;99.90;;;;;;4970061;28;20034;-78
2023/05/16 08:13:42;;;;;;;9.43;2.40;;;12.60;99.90;;;;;;4977643;28;20038;-78
2023/05/16 08:16:08;;;;;;;10.35;2.20;;;12.50;99.90;;;;;;4967545;28;20520;-78
2023/05/16 08:18:34;;;;;;;7.25;2.30;;;12.40;99.90;;;;;;4996358;28;20045;-78
2023/05/16 08:21:00;;;;;;;9.30;2.53;;;13.10;99.90;;;;;;4967615;28;20042;-79
2023/05/16 08:23:25;;;;;;;6.90;2.22;;;14.30;99.90;;;;;;4970984;28;20081;-79
2023/05/16 08:25:53;;;;;;;8.48;2.40;;;15.50;99.90;;;;;;4966941;28;20580;-79
2023/05/16 08:28:19;;;;;;;6.93;1.80;;;16.60;99.90;;;;;;4978378;28;20040;-78
2023/05/16 08:30:45;;;;;;;8.23;2.00;;;17.20;99.90;;;;;;4981501;28;20050;-78
2023/05/16 08:33:10;;;;;;;9.43;2.10;;;18.00;99.90;;;;;;4982754;28;20129;-79
2023/05/16 08:35:36;;;;;;;5.03;1.70;;;18.40;99.90;;;;;;4993283;28;20049;-78
2023/05/16 08:38:02;;;;;;;8.07;2.22;;;18.90;99.90;;;;;;4996562;28;20037;-79
2023/05/16 08:40:28;;;;;;;6.10;1.63;;;19.40;99.90;;;;;;4997628;28;20095;-79
2023/05/16 08:42:54;;;;;;;6.53;1.27;;;20.10;99.90;;;;;;4978590;28;20133;-79
2023/05/16 08:45:22;;;;;;;6.88;1.63;;;19.90;72.20;;;;;;4981630;28;20121;-80
2023/05/16 08:47:50;;;;;;;6.32;1.77;;;19.30;90.20;;;;;;4983686;28;20037;-78
2023/05/16 08:50:16;;;;;;;6.38;1.77;;;19.20;94.40;;;;;;4986574;28;20083;-79
2023/05/16 08:52:43;;;;;;;6.53;1.73;;;19.10;83.00;;;;;;5009304;28;20038;-79
2023/05/16 08:55:10;;;;;;;5.40;1.67;;;18.90;96.00;;;;;;5004839;28;20052;-78
2023/05/16 08:57:37;;;;;;;4.97;1.67;;;18.30;90.10;;;;;;5015477;28;20395;-78
2023/05/16 09:00:06;;;;;;;5.72;1.73;;;17.80;91.70;;;;;;4980610;28;20050;-78
2023/05/16 09:02:35;;;;;;;6.10;1.58;;;17.80;96.80;;;;;;4980718;28;20037;-78
2023/05/16 09:05:02;;;;;;;5.57;1.60;;;18.20;99.90;;;;;;4970894;28;20034;-78
2023/05/16 09:07:28;;;;;;;5.43;1.27;;;18.90;97.70;;;;;;4985644;28;20045;-78
2023/05/16 09:09:54;;;;;;;4.20;1.30;;;19.70;98.10;;;;;;4991775;28;20099;-79
2023/05/16 09:12:20;;;;;;;5.00;1.30;;;20.30;90.20;;;;;;4983844;28;20049;-78
2023/05/16 09:14:46;;;;;;;4.68;1.15;;;20.40;90.30;;;;;;4979648;28;20042;-78
2023/05/16 09:17:14;;;;;;;5.93;1.42;;;20.40;82.80;;;;;;4970833;28;20065;-78
2023/05/16 09:19:41;;;;;;;4.68;1.20;;;20.40;73.50;;;;;;4962428;28;20038;-78
2023/05/16 09:22:15;;;;;;;7.70;1.50;;;20.50;72.60;;;;;;4962248;28;20113;-78
2023/05/16 09:24:42;;;;;;;6.00;1.35;;;20.70;71.80;;;;;;4961823;28;20532;-78
2023/05/16 09:27:13;;;;;;;4.95;1.65;;;21.10;71.10;;;;;;4977668;28;20042;-78
2023/05/16 09:29:43;;;;;;;5.82;1.63;;;21.40;70.80;;;;;;4961720;28;20081;-78
2023/05/16 09:32:14;;;;;;;5.10;1.75;;;21.70;67.10;;;;;;4973235;28;20045;-78
2023/05/16 09:34:48;;;;;;;4.20;1.20;;;21.90;60.40;;;;;;4981248;28;20041;-78
2023/05/16 09:37:15;;;;;;;6.07;1.40;;;21.40;63.90;;;;;;4977750;28;20068;-78
2023/05/16 09:39:53;;;;;;;7.07;1.55;;;20.90;66.60;;;;;;4989382;28;20125;-78
2023/05/16 09:42:23;;;;;;;6.20;1.58;;;20.00;66.40;;;;;;5010219;28;20040;-78
2023/05/16 09:44:54;;;;;;;5.53;1.42;;;19.60;69.50;;;;;;4968027;28;20054;-78
2023/05/16 09:47:21;;;;;;;6.55;1.77;;;20.00;72.70;;;;;;4996644;28;20081;-77
2023/05/16 09:49:51;;;;;;;6.88;1.85;;;20.10;71.50;;;;;;4982991;28;20042;-77
2023/05/16 09:52:20;;;;;;;6.88;1.75;;;20.00;69.30;;;;;;4980824;28;20420;-77
2023/05/16 09:54:48;;;;;;;7.22;1.70;;;19.70;71.10;;;;;;4980814;28;20037;-77
2023/05/16 09:57:30;;;;;;;7.90;1.77;;;19.60;71.20;;;;;;4971585;28;20095;-78
2023/05/16 10:00:05;;;;;;;5.47;1.80;;;19.90;73.50;;;;;;4980728;28;20116;-77
2023/05/16 10:02:31;;;;;;;7.47;2.40;;;20.40;73.10;;;;;;4980393;28;20582;-77
2023/05/16 10:04:58;;;;;;;5.60;1.60;;;21.00;71.40;;;;;;4979619;28;20049;-78
2023/05/16 10:07:24;;;;;;;8.25;1.77;;;21.30;66.50;;;;;;4979993;28;20404;-78
2023/05/16 10:09:51;;;;;;;7.72;1.60;;;21.40;68.30;;;;;;4978955;28;20042;-78
2023/05/16 10:12:19;;;;;;;5.18;1.63;;;21.60;63.90;;;;;;4975806;28;20121;-79
2023/05/16 10:14:45;;;;;;;8.02;1.85;;;21.30;63.20;;;;;;4980323;28;20042;-78
2023/05/16 10:17:26;;;;;;;6.22;1.52;;;20.60;60.70;;;;;;4996647;28;20404;-78
2023/05/16 10:19:54;;;;;;;7.10;2.28;;;19.60;63.50;;;;;;4988155;28;20493;-80
2023/05/16 10:22:22;;;;;;;8.75;1.92;;;18.90;64.80;;;;;;4977992;28;20058;-79
2023/05/16 10:24:57;;;;;;;8.00;1.73;;;18.30;64.70;;;;;;4996557;28;20112;-79
2023/05/16 10:27:24;;;;;;;8.23;1.95;;;18.00;65.40;;;;;;4993443;28;20041;-79
2023/05/16 10:29:51;;;;;;;6.55;1.75;;;17.50;66.90;;;;;;4972743;28;20046;-79
2023/05/16 10:32:18;;;;;;;9.40;2.00;;;17.80;71.20;;;;;;4977143;28;20049;-79
2023/05/16 10:34:46;;;;;;;7.22;1.80;;;18.50;69.80;;;;;;4985218;28;20077;-79
2023/05/16 10:37:12;;;;;;;7.30;1.80;;;19.20;70.70;;;;;;4976271;28;20039;-79
2023/05/16 10:39:43;;;;;;;7.43;2.20;;;19.00;67.00;;;;;;4966207;28;20046;-78
2023/05/16 10:42:24;;;;;;;7.35;1.70;;;18.30;66.10;;;;;;4995957;28;20042;-77
2023/05/16 10:45:27;;;;;;;7.93;2.05;;;17.50;67.00;;;;;;4980216;28;20050;-77
2023/05/16 10:48:00;;;;;;;7.10;2.03;;;16.80;75.20;;;;;;4954641;28;20412;-76
2023/05/16 10:50:32;;;;;;;6.85;2.00;;;16.40;92.90;;;;;;5009779;28;20514;-77
2023/05/16 10:53:32;;;;;;;7.95;2.13;;;16.60;99.90;;;;;;4987626;28;20037;-77
2023/05/16 10:56:21;;;;;;;7.63;1.88;;;17.70;99.90;;;;;;4979808;28;20082;-76
2023/05/16 10:58:50;;;;;;;6.70;2.00;;;18.10;84.20;;;;;;4978449;28;20105;-76
2023/05/16 11:01:22;;;;;;;6.88;1.58;;;18.70;79.50;;;;;;5005516;28;20044;-78
2023/05/16 11:04:07;;;;;;;4.65;1.70;;;19.30;72.00;;;;;;4979628;28;20389;-77
2023/05/16 11:06:47;;;;;;;5.75;1.58;;;19.20;70.40;;;;;;4983914;28;20116;-77
2023/05/16 11:09:22;;;;;;;6.18;1.50;;;18.60;68.40;;;;;;4994630;28;20116;-77
2023/05/16 11:11:51;;;;;;;5.57;1.58;;;18.00;67.50;;;;;;4979047;28;20133;-77
2023/05/16 11:14:37;;;;;;;5.20;1.80;;;17.60;68.10;;;;;;4977471;28;20516;-78
2023/05/16 11:17:13;;;;;;;4.78;1.70;;;17.50;66.50;;;;;;4978808;28;20048;-77
2023/05/16 11:19:45;;;;;;;5.97;1.80;;;17.60;64.90;;;;;;5011896;28;20586;-78
2023/05/16 11:22:22;;;;;;;4.88;1.70;;;17.90;66.70;;;;;;5010413;28;20050;-79
2023/05/16 11:24:56;;;;;;;6.68;2.00;;;18.30;66.60;;;;;;4981571;28;20113;-78
2023/05/16 11:27:29;;;;;;;;;;;18.70;67.20;;;;;;4978995;28;20034;-78
2023/05/16 11:29:58;;;;;;;;;;;19.10;70.00;;;;;;4975986;28;19917;-78
2023/05/16 11:32:26;;;;;;;8.40;1.75;;;19.80;68.90;;;;;;4972981;28;19928;-78
2023/05/16 11:34:53;;;;;;;5.55;1.95;;;19.90;65.70;;;;;;4975172;28;20034;-78
2023/05/16 11:37:19;;;;;;;6.78;1.90;;;19.60;61.40;;;;;;4973891;28;20034;-77
2023/05/16 11:39:46;;;;;;;5.57;1.85;;;18.90;60.90;;;;;;4983329;28;20632;-78
2023/05/16 11:42:12;;;;;;;5.75;1.85;;;18.20;65.20;;;;;;4981100;28;20061;-77
2023/05/16 11:44:39;;;;;;;5.50;1.80;;;17.40;65.80;;;;;;4992526;28;20034;-77
2023/05/16 11:47:06;;;;;;;7.13;2.08;;;16.70;70.80;;;;;;4974486;28;20096;-78
2023/05/16 11:49:34;;;;;;;6.30;2.00;;;16.20;74.80;;;;;;4970972;28;20038;-77
2023/05/16 11:52:00;;;;;;;6.10;2.00;;;16.10;95.30;;;;;;4994431;28;20046;-77
2023/05/16 11:54:29;;;;;;;6.28;2.30;;;16.20;99.90;;;;;;4990885;28;20118;-78
2023/05/16 11:56:55;;;;;;;8.10;2.28;;;16.70;99.90;;;;;;4973920;28;20042;-77
2023/05/16 11:59:21;;;;;;;5.43;1.80;;;17.20;99.90;;;;;;4966988;28;20042;-78
2023/05/16 12:01:50;;;;;;;6.38;1.77;;;17.70;99.90;;;;;;5007305;28;20112;-77
2023/05/16 12:04:16;;;;;;;5.35;1.90;;;18.50;95.70;;;;;;5005043;28;20395;-78
2023/05/16 12:06:48;;;;;;;4.35;1.50;;;19.50;99.90;;;;;;4975083;28;20072;-77
2023/05/16 12:09:14;;;;;;;4.35;1.70;;;20.40;92.60;;;;;;4984655;28;20045;-78
2023/05/16 12:11:43;;;;;;;4.13;1.58;;;21.10;83.50;;;;;;4973885;28;20480;-78
2023/05/16 12:14:11;;;;;;;3.92;1.48;;;21.50;73.30;;;;;;4968652;28;20562;-78
2023/05/16 12:16:41;;;;;;;4.68;1.48;;;21.80;68.00;;;;;;4976548;28;20046;-78
2023/05/16 12:19:07;;;;;;;4.38;1.38;;;22.10;67.60;;;;;;4993414;28;20058;-78
2023/05/16 12:21:33;;;;;;;5.07;1.60;;;21.90;66.40;;;;;;4971922;28;20037;-77
2023/05/16 12:24:00;;;;;;;4.70;1.63;;;21.30;66.60;;;;;;4969378;28;20089;-78
2023/05/16 12:26:29;;;;;;;4.45;1.60;;;20.70;66.40;;;;;;5002595;28;20030;-77
2023/05/16 12:28:59;;;;;;;4.65;1.40;;;19.90;66.90;;;;;;4978225;28;20042;-77
2023/05/16 12:31:26;;;;;;;5.57;1.45;;;19.40;69.20;;;;;;4977483;28;20034;-78
2023/05/16 12:33:55;;;;;;;7.68;1.80;;;19.00;71.00;;;;;;5003202;28;20064;-77
2023/05/16 12:36:27;;;;;;;3.40;1.60;;;18.90;70.40;;;;;;4974324;28;20039;-77
2023/05/16 12:38:53;;;;;;;4.75;2.00;;;19.20;70.50;;;;;;4971859;28;20143;-78
2023/05/16 12:41:21;;;;;;;5.40;1.90;;;19.40;72.30;;;;;;4976943;28;20089;-77
2023/05/16 12:43:48;;;;;;;4.47;1.95;;;20.10;72.60;;;;;;4986745;28;20038;-78
2023/05/16 12:46:13;;;;;;;4.38;1.80;;;21.10;74.70;;;;;;5001047;28;20039;-77
2023/05/16 12:48:43;;;;;;;4.82;2.00;;;21.40;67.40;;;;;;4994135;28;20037;-78
2023/05/16 12:51:17;;;;;;;6.55;2.10;;;21.10;65.90;;;;;;4976940;28;20042;-78